sensor_id;sensor_type;location;lat;lon;timestamp;temperature;humidity
48328;DHT22;34136;51.022;7.082;2023-07-29T00:04:52;20.50;1.00
48328;DHT22;34136;51.022;7.082;2023-07-29T00:07:38;20.50;1.00
48328;DHT22;34136;51.022;7.082;2023-07-29T00:10:26;20.50;1.00
48328;DHT22;34136;51.022;7.082;2023-07-29T00:13:12;20.50;1.00
48328;DHT22;34136;51.022;7.082;2023-07-29T00:15:58;20.60;1.00
48328;DHT22;34136;51.022;7.082;2023-07-29T00:18:44;20.60;1.00
48328;DHT22;34136;51.022;7.082;2023-07-29T00:21:31;20.60;1.00
48328;DHT22;34136;51.022;7.082;2023-07-29T00:24:17;20.60;1.00
48328;DHT22;34136;51.022;7.082;2023-07-29T00:27:03;20.60;1.00
48328;DHT22;34136;51.022;7.082;2023-07-29T00:29:49;20.60;1.00
48328;DHT22;34136;51.022;7.082;2023-07-29T00:32:35;20.50;1.00
48328;DHT22;34136;51.022;7.082;2023-07-29T00:35:21;20.40;1.00
48328;DHT22;34136;51.022;7.082;2023-07-29T00:38:08;20.50;1.00
48328;DHT22;34136;51.022;7.082;2023-07-29T00:40:54;20.50;1.00
48328;DHT22;34136;51.022;7.082;2023-07-29T00:43:40;20.40;1.00
48328;DHT22;34136;51.022;7.082;2023-07-29T00:46:28;20.40;1.00
48328;DHT22;34136;51.022;7.082;2023-07-29T00:49:14;20.50;1.00
48328;DHT22;34136;51.022;7.082;2023-07-29T00:52:01;20.50;1.00
48328;DHT22;34136;51.022;7.082;2023-07-29T00:54:47;20.40;1.00
48328;DHT22;34136;51.022;7.082;2023-07-29T00:57:33;20.30;1.00
48328;DHT22;34136;51.022;7.082;2023-07-29T01:00:21;20.30;1.00
48328;DHT22;34136;51.022;7.082;2023-07-29T01:03:08;20.30;1.00
48328;DHT22;34136;51.022;7.082;2023-07-29T01:13:10;20.20;1.00
48328;DHT22;34136;51.022;7.082;2023-07-29T01:16:04;20.20;1.00
48328;DHT22;34136;51.022;7.082;2023-07-29T01:18:53;20.20;1.00
48328;DHT22;34136;51.022;7.082;2023-07-29T01:21:42;20.20;1.00
48328;DHT22;34136;51.022;7.082;2023-07-29T01:24:34;20.20;1.00
48328;DHT22;34136;51.022;7.082;2023-07-29T01:27:20;20.20;1.00
48328;DHT22;34136;51.022;7.082;2023-07-29T01:30:07;20.30;1.00
48328;DHT22;34136;51.022;7.082;2023-07-29T01:33:09;20.30;1.00
48328;DHT22;34136;51.022;7.082;2023-07-29T01:36:02;20.30;1.00
48328;DHT22;34136;51.022;7.082;2023-07-29T01:38:49;20.30;1.00
48328;DHT22;34136;51.022;7.082;2023-07-29T01:41:37;20.30;1.00
48328;DHT22;34136;51.022;7.082;2023-07-29T01:44:24;20.30;1.00
48328;DHT22;34136;51.022;7.082;2023-07-29T01:47:10;20.30;1.00
48328;DHT22;34136;51.022;7.082;2023-07-29T01:49:56;20.30;1.00
48328;DHT22;34136;51.022;7.082;2023-07-29T01:52:43;20.30;1.00
48328;DHT22;34136;51.022;7.082;2023-07-29T01:55:29;20.20;1.00
48328;DHT22;34136;51.022;7.082;2023-07-29T01:58:15;20.30;1.00
48328;DHT22;34136;51.022;7.082;2023-07-29T02:01:06;20.30;1.00
48328;DHT22;34136;51.022;7.082;2023-07-29T02:03:52;20.30;1.00
48328;DHT22;34136;51.022;7.082;2023-07-29T02:06:39;20.30;1.00
48328;DHT22;34136;51.022;7.082;2023-07-29T02:09:24;20.30;1.00
48328;DHT22;34136;51.022;7.082;2023-07-29T02:12:11;20.20;1.00
48328;DHT22;34136;51.022;7.082;2023-07-29T02:14:57;20.10;1.00
48328;DHT22;34136;51.022;7.082;2023-07-29T02:17:43;20.10;1.00
48328;DHT22;34136;51.022;7.082;2023-07-29T02:20:30;20.10;1.00
48328;DHT22;34136;51.022;7.082;2023-07-29T02:23:16;20.10;1.00
48328;DHT22;34136;51.022;7.082;2023-07-29T02:26:03;20.20;1.00
48328;DHT22;34136;51.022;7.082;2023-07-29T02:28:49;20.10;1.00
48328;DHT22;34136;51.022;7.082;2023-07-29T02:31:35;20.10;1.00
48328;DHT22;34136;51.022;7.082;2023-07-29T02:34:22;20.10;1.00
48328;DHT22;34136;51.022;7.082;2023-07-29T02:37:08;20.10;1.00
48328;DHT22;34136;51.022;7.082;2023-07-29T02:39:54;20.10;1.00
48328;DHT22;34136;51.022;7.082;2023-07-29T02:42:40;20.10;1.00
48328;DHT22;34136;51.022;7.082;2023-07-29T02:45:26;20.00;1.00
48328;DHT22;34136;51.022;7.082;2023-07-29T02:48:12;20.00;1.00
48328;DHT22;34136;51.022;7.082;2023-07-29T02:50:59;20.00;1.00
48328;DHT22;34136;51.022;7.082;2023-07-29T02:53:45;20.00;1.00
48328;DHT22;34136;51.022;7.082;2023-07-29T02:56:31;20.10;1.00
48328;DHT22;34136;51.022;7.082;2023-07-29T02:59:18;20.00;1.00
48328;DHT22;34136;51.022;7.082;2023-07-29T03:02:04;20.10;1.00
48328;DHT22;34136;51.022;7.082;2023-07-29T03:04:50;20.10;1.00
48328;DHT22;34136;51.022;7.082;2023-07-29T03:07:37;20.10;1.00
48328;DHT22;34136;51.022;7.082;2023-07-29T03:10:24;20.00;1.00
48328;DHT22;34136;51.022;7.082;2023-07-29T03:13:10;20.00;1.00
48328;DHT22;34136;51.022;7.082;2023-07-29T03:16:14;20.00;1.00
48328;DHT22;34136;51.022;7.082;2023-07-29T03:19:05;20.00;1.00
48328;DHT22;34136;51.022;7.082;2023-07-29T03:21:51;20.00;1.00
48328;DHT22;34136;51.022;7.082;2023-07-29T03:24:37;20.00;1.00
48328;DHT22;34136;51.022;7.082;2023-07-29T03:27:24;19.90;1.00
48328;DHT22;34136;51.022;7.082;2023-07-29T03:30:10;20.00;1.00
48328;DHT22;34136;51.022;7.082;2023-07-29T03:32:57;19.90;1.00
48328;DHT22;34136;51.022;7.082;2023-07-29T03:35:43;19.90;1.00
48328;DHT22;34136;51.022;7.082;2023-07-29T03:38:30;20.00;1.00
48328;DHT22;34136;51.022;7.082;2023-07-29T03:41:16;20.00;1.00
48328;DHT22;34136;51.022;7.082;2023-07-29T03:44:02;20.00;1.00
48328;DHT22;34136;51.022;7.082;2023-07-29T03:46:49;20.00;1.00
48328;DHT22;34136;51.022;7.082;2023-07-29T03:49:35;20.10;1.00
48328;DHT22;34136;51.022;7.082;2023-07-29T03:52:22;20.10;1.00
48328;DHT22;34136;51.022;7.082;2023-07-29T03:55:09;20.10;1.00
48328;DHT22;34136;51.022;7.082;2023-07-29T03:57:57;20.10;1.00
48328;DHT22;34136;51.022;7.082;2023-07-29T04:00:43;20.00;1.00
48328;DHT22;34136;51.022;7.082;2023-07-29T04:03:29;20.00;1.00
48328;DHT22;34136;51.022;7.082;2023-07-29T04:06:16;20.00;1.00
48328;DHT22;34136;51.022;7.082;2023-07-29T04:09:02;19.90;1.00
48328;DHT22;34136;51.022;7.082;2023-07-29T04:11:49;19.90;1.00
48328;DHT22;34136;51.022;7.082;2023-07-29T04:14:35;19.90;1.00
48328;DHT22;34136;51.022;7.082;2023-07-29T04:17:22;19.90;1.00
48328;DHT22;34136;51.022;7.082;2023-07-29T04:20:08;19.90;1.00
48328;DHT22;34136;51.022;7.082;2023-07-29T04:22:55;19.90;1.00
48328;DHT22;34136;51.022;7.082;2023-07-29T04:25:41;19.90;1.00
48328;DHT22;34136;51.022;7.082;2023-07-29T04:28:28;19.90;1.00
48328;DHT22;34136;51.022;7.082;2023-07-29T04:31:14;19.90;1.00
48328;DHT22;34136;51.022;7.082;2023-07-29T04:34:00;19.90;1.00
48328;DHT22;34136;51.022;7.082;2023-07-29T04:36:47;19.90;1.00
48328;DHT22;34136;51.022;7.082;2023-07-29T04:39:34;20.00;1.00
48328;DHT22;34136;51.022;7.082;2023-07-29T04:42:20;20.00;1.00
48328;DHT22;34136;51.022;7.082;2023-07-29T04:45:09;20.00;1.00
48328;DHT22;34136;51.022;7.082;2023-07-29T04:47:56;20.00;1.00
48328;DHT22;34136;51.022;7.082;2023-07-29T04:50:42;19.90;1.00
48328;DHT22;34136;51.022;7.082;2023-07-29T04:53:28;19.90;1.00
48328;DHT22;34136;51.022;7.082;2023-07-29T04:56:15;19.90;1.00
48328;DHT22;34136;51.022;7.082;2023-07-29T04:59:01;19.90;1.00
48328;DHT22;34136;51.022;7.082;2023-07-29T05:01:47;19.80;1.00
48328;DHT22;34136;51.022;7.082;2023-07-29T05:04:34;19.80;1.00
48328;DHT22;34136;51.022;7.082;2023-07-29T05:07:20;19.80;1.00
48328;DHT22;34136;51.022;7.082;2023-07-29T05:10:07;19.80;1.00
48328;DHT22;34136;51.022;7.082;2023-07-29T05:12:53;19.80;1.00
48328;DHT22;34136;51.022;7.082;2023-07-29T05:15:40;19.80;1.00
48328;DHT22;34136;51.022;7.082;2023-07-29T05:18:26;19.90;1.00
48328;DHT22;34136;51.022;7.082;2023-07-29T05:21:12;19.90;1.00
48328;DHT22;34136;51.022;7.082;2023-07-29T05:23:58;20.00;1.00
48328;DHT22;34136;51.022;7.082;2023-07-29T05:26:44;20.00;1.00
48328;DHT22;34136;51.022;7.082;2023-07-29T05:29:31;20.00;1.00
48328;DHT22;34136;51.022;7.082;2023-07-29T05:32:17;20.00;1.00
48328;DHT22;34136;51.022;7.082;2023-07-29T05:35:04;20.00;1.00
48328;DHT22;34136;51.022;7.082;2023-07-29T05:37:51;20.00;1.00
48328;DHT22;34136;51.022;7.082;2023-07-29T05:40:37;20.10;1.00
48328;DHT22;34136;51.022;7.082;2023-07-29T05:43:27;20.10;1.00
48328;DHT22;34136;51.022;7.082;2023-07-29T05:46:13;20.20;1.00
48328;DHT22;34136;51.022;7.082;2023-07-29T05:49:00;20.10;1.00
48328;DHT22;34136;51.022;7.082;2023-07-29T05:51:47;20.00;1.00
48328;DHT22;34136;51.022;7.082;2023-07-29T05:54:33;20.10;1.00
48328;DHT22;34136;51.022;7.082;2023-07-29T05:57:19;20.10;1.00
48328;DHT22;34136;51.022;7.082;2023-07-29T06:00:06;20.00;1.00
48328;DHT22;34136;51.022;7.082;2023-07-29T06:02:58;19.90;1.00
48328;DHT22;34136;51.022;7.082;2023-07-29T07:47:05;20.40;1.00
48328;DHT22;34136;51.022;7.082;2023-07-29T07:49:51;20.50;1.00
48328;DHT22;34136;51.022;7.082;2023-07-29T07:52:37;20.50;1.00
48328;DHT22;34136;51.022;7.082;2023-07-29T07:55:23;20.50;1.00
48328;DHT22;34136;51.022;7.082;2023-07-29T07:58:09;20.60;1.00
48328;DHT22;34136;51.022;7.082;2023-07-29T08:01:05;20.60;1.00
48328;DHT22;34136;51.022;7.082;2023-07-29T08:03:54;20.60;1.00
48328;DHT22;34136;51.022;7.082;2023-07-29T08:06:40;20.40;1.00
48328;DHT22;34136;51.022;7.082;2023-07-29T08:09:27;20.50;1.40
48328;DHT22;34136;51.022;7.082;2023-07-29T08:12:13;20.50;99.90
48328;DHT22;34136;51.022;7.082;2023-07-29T08:14:59;20.70;1.40
48328;DHT22;34136;51.022;7.082;2023-07-29T08:17:45;20.90;99.90
48328;DHT22;34136;51.022;7.082;2023-07-29T08:20:31;21.00;99.90
48328;DHT22;34136;51.022;7.082;2023-07-29T08:23:18;21.10;99.90
48328;DHT22;34136;51.022;7.082;2023-07-29T08:26:05;21.30;99.90
48328;DHT22;34136;51.022;7.082;2023-07-29T08:28:51;21.40;99.90
48328;DHT22;34136;51.022;7.082;2023-07-29T08:31:39;21.50;99.90
48328;DHT22;34136;51.022;7.082;2023-07-29T08:34:28;21.70;99.90
48328;DHT22;34136;51.022;7.082;2023-07-29T08:37:14;21.80;99.90
48328;DHT22;34136;51.022;7.082;2023-07-29T08:40:00;22.20;99.90
48328;DHT22;34136;51.022;7.082;2023-07-29T08:42:47;22.30;99.90
48328;DHT22;34136;51.022;7.082;2023-07-29T08:45:35;22.40;99.90
48328;DHT22;34136;51.022;7.082;2023-07-29T08:48:39;22.40;99.90
48328;DHT22;34136;51.022;7.082;2023-07-29T08:51:27;22.50;99.90
48328;DHT22;34136;51.022;7.082;2023-07-29T08:54:14;22.70;99.90
48328;DHT22;34136;51.022;7.082;2023-07-29T08:57:00;22.30;99.90
48328;DHT22;34136;51.022;7.082;2023-07-29T08:59:47;22.30;99.90
48328;DHT22;34136;51.022;7.082;2023-07-29T09:02:37;22.40;99.90
48328;DHT22;34136;51.022;7.082;2023-07-29T09:05:23;22.20;99.90
48328;DHT22;34136;51.022;7.082;2023-07-29T09:08:09;22.00;99.90
48328;DHT22;34136;51.022;7.082;2023-07-29T09:11:02;22.00;99.90
48328;DHT22;34136;51.022;7.082;2023-07-29T09:13:48;22.10;99.90
48328;DHT22;34136;51.022;7.082;2023-07-29T09:16:35;22.10;99.90
48328;DHT22;34136;51.022;7.082;2023-07-29T09:19:27;22.10;99.90
48328;DHT22;34136;51.022;7.082;2023-07-29T09:22:20;22.20;99.90
48328;DHT22;34136;51.022;7.082;2023-07-29T09:25:07;22.20;99.90
48328;DHT22;34136;51.022;7.082;2023-07-29T09:28:07;22.20;99.90
48328;DHT22;34136;51.022;7.082;2023-07-29T09:31:06;22.30;99.90
48328;DHT22;34136;51.022;7.082;2023-07-29T09:34:12;22.30;99.90
48328;DHT22;34136;51.022;7.082;2023-07-29T09:40:40;22.60;99.90
48328;DHT22;34136;51.022;7.082;2023-07-29T09:43:39;22.70;99.90
48328;DHT22;34136;51.022;7.082;2023-07-29T09:46:36;22.80;99.90
48328;DHT22;34136;51.022;7.082;2023-07-29T09:49:35;22.70;99.90
48328;DHT22;34136;51.022;7.082;2023-07-29T09:52:46;22.60;99.90
48328;DHT22;34136;51.022;7.082;2023-07-29T09:55:33;22.40;99.90
48328;DHT22;34136;51.022;7.082;2023-07-29T09:58:39;22.40;99.90
48328;DHT22;34136;51.022;7.082;2023-07-29T10:01:41;22.20;99.90
48328;DHT22;34136;51.022;7.082;2023-07-29T10:05:03;22.50;99.90
48328;DHT22;34136;51.022;7.082;2023-07-29T10:08:00;22.60;99.90
48328;DHT22;34136;51.022;7.082;2023-07-29T10:14:31;22.80;99.90
48328;DHT22;34136;51.022;7.082;2023-07-29T10:17:27;22.70;99.90
48328;DHT22;34136;51.022;7.082;2023-07-29T10:20:13;23.00;99.90
48328;DHT22;34136;51.022;7.082;2023-07-29T10:23:01;23.10;99.90
48328;DHT22;34136;51.022;7.082;2023-07-29T10:26:04;23.30;99.90
48328;DHT22;34136;51.022;7.082;2023-07-29T10:28:52;23.30;99.90
48328;DHT22;34136;51.022;7.082;2023-07-29T10:31:43;23.30;99.90
48328;DHT22;34136;51.022;7.082;2023-07-29T10:34:31;23.30;99.90
48328;DHT22;34136;51.022;7.082;2023-07-29T10:37:31;23.30;99.90
48328;DHT22;34136;51.022;7.082;2023-07-29T10:40:23;23.30;99.90
48328;DHT22;34136;51.022;7.082;2023-07-29T10:43:11;23.50;99.90
48328;DHT22;34136;51.022;7.082;2023-07-29T10:49:26;23.40;99.90
48328;DHT22;34136;51.022;7.082;2023-07-29T10:52:29;22.80;99.90
48328;DHT22;34136;51.022;7.082;2023-07-29T10:55:35;22.50;99.90
48328;DHT22;34136;51.022;7.082;2023-07-29T10:58:22;22.40;99.90
48328;DHT22;34136;51.022;7.082;2023-07-29T11:01:32;22.20;99.90
48328;DHT22;34136;51.022;7.082;2023-07-29T11:07:20;22.30;99.90
48328;DHT22;34136;51.022;7.082;2023-07-29T11:10:07;22.20;99.90
48328;DHT22;34136;51.022;7.082;2023-07-29T11:13:02;22.10;99.90
48328;DHT22;34136;51.022;7.082;2023-07-29T11:15:56;22.10;99.90
48328;DHT22;34136;51.022;7.082;2023-07-29T11:22:38;22.30;99.90
48328;DHT22;34136;51.022;7.082;2023-07-29T11:25:26;22.30;99.90
48328;DHT22;34136;51.022;7.082;2023-07-29T11:28:12;22.50;99.90
48328;DHT22;34136;51.022;7.082;2023-07-29T11:30:59;22.60;99.90
48328;DHT22;34136;51.022;7.082;2023-07-29T11:33:45;22.90;99.90
48328;DHT22;34136;51.022;7.082;2023-07-29T11:36:31;22.80;99.90
48328;DHT22;34136;51.022;7.082;2023-07-29T11:39:17;23.00;99.90
48328;DHT22;34136;51.022;7.082;2023-07-29T11:42:04;23.00;99.90
48328;DHT22;34136;51.022;7.082;2023-07-29T11:44:50;23.10;99.90
48328;DHT22;34136;51.022;7.082;2023-07-29T11:47:43;23.10;99.90
48328;DHT22;34136;51.022;7.082;2023-07-29T11:50:29;22.90;99.90
48328;DHT22;34136;51.022;7.082;2023-07-29T11:53:15;22.90;99.90
48328;DHT22;34136;51.022;7.082;2023-07-29T11:56:03;23.20;99.90
48328;DHT22;34136;51.022;7.082;2023-07-29T11:58:55;23.50;99.90
48328;DHT22;34136;51.022;7.082;2023-07-29T12:01:52;23.50;99.90
48328;DHT22;34136;51.022;7.082;2023-07-29T12:04:46;23.50;99.90
48328;DHT22;34136;51.022;7.082;2023-07-29T12:07:33;23.80;99.90
48328;DHT22;34136;51.022;7.082;2023-07-29T12:10:20;23.70;99.90
48328;DHT22;34136;51.022;7.082;2023-07-29T12:13:08;23.50;99.90
48328;DHT22;34136;51.022;7.082;2023-07-29T12:16:01;23.70;99.90
48328;DHT22;34136;51.022;7.082;2023-07-29T12:18:50;23.90;99.90
48328;DHT22;34136;51.022;7.082;2023-07-29T12:22:03;23.80;99.90
48328;DHT22;34136;51.022;7.082;2023-07-29T12:24:51;23.80;99.90
48328;DHT22;34136;51.022;7.082;2023-07-29T12:27:37;23.90;99.90
48328;DHT22;34136;51.022;7.082;2023-07-29T12:34:20;24.20;99.90
48328;DHT22;34136;51.022;7.082;2023-07-29T12:37:07;24.40;99.90
48328;DHT22;34136;51.022;7.082;2023-07-29T12:39:57;24.30;99.90
48328;DHT22;34136;51.022;7.082;2023-07-29T12:42:43;24.30;99.90
48328;DHT22;34136;51.022;7.082;2023-07-29T12:45:58;24.40;99.90
48328;DHT22;34136;51.022;7.082;2023-07-29T12:48:59;24.60;99.90
48328;DHT22;34136;51.022;7.082;2023-07-29T13:42:20;25.10;99.90
48328;DHT22;34136;51.022;7.082;2023-07-29T13:45:06;25.10;99.90
48328;DHT22;34136;51.022;7.082;2023-07-29T13:47:53;25.10;99.90
48328;DHT22;34136;51.022;7.082;2023-07-29T13:50:39;25.10;99.90
48328;DHT22;34136;51.022;7.082;2023-07-29T13:53:25;25.10;99.90
48328;DHT22;34136;51.022;7.082;2023-07-29T13:56:12;25.10;99.90
48328;DHT22;34136;51.022;7.082;2023-07-29T13:58:58;25.10;99.90
48328;DHT22;34136;51.022;7.082;2023-07-29T14:01:44;25.00;99.90
48328;DHT22;34136;51.022;7.082;2023-07-29T14:04:32;24.60;99.90
48328;DHT22;34136;51.022;7.082;2023-07-29T14:07:19;24.40;99.90
48328;DHT22;34136;51.022;7.082;2023-07-29T14:10:05;24.40;99.90
48328;DHT22;34136;51.022;7.082;2023-07-29T14:12:52;24.40;99.90
48328;DHT22;34136;51.022;7.082;2023-07-29T14:15:38;24.00;99.90
48328;DHT22;34136;51.022;7.082;2023-07-29T14:18:25;23.80;99.90
48328;DHT22;34136;51.022;7.082;2023-07-29T14:21:11;23.60;99.90
48328;DHT22;34136;51.022;7.082;2023-07-29T14:23:57;23.50;99.90
48328;DHT22;34136;51.022;7.082;2023-07-29T14:26:44;23.60;99.90
48328;DHT22;34136;51.022;7.082;2023-07-29T14:29:30;23.80;99.90
48328;DHT22;34136;51.022;7.082;2023-07-29T14:32:16;23.80;99.90
48328;DHT22;34136;51.022;7.082;2023-07-29T14:35:03;24.10;99.90
48328;DHT22;34136;51.022;7.082;2023-07-29T14:37:49;24.10;99.90
48328;DHT22;34136;51.022;7.082;2023-07-29T14:40:36;24.10;99.90
48328;DHT22;34136;51.022;7.082;2023-07-29T14:43:22;24.10;99.90
48328;DHT22;34136;51.022;7.082;2023-07-29T14:46:09;24.10;99.90
48328;DHT22;34136;51.022;7.082;2023-07-29T14:48:55;24.20;99.90
48328;DHT22;34136;51.022;7.082;2023-07-29T14:51:42;24.10;99.90
48328;DHT22;34136;51.022;7.082;2023-07-29T14:54:28;23.90;99.90
48328;DHT22;34136;51.022;7.082;2023-07-29T14:57:14;23.70;99.90
48328;DHT22;34136;51.022;7.082;2023-07-29T15:00:01;23.70;99.90
48328;DHT22;34136;51.022;7.082;2023-07-29T15:02:48;23.70;99.90
48328;DHT22;34136;51.022;7.082;2023-07-29T15:05:34;23.70;99.90
48328;DHT22;34136;51.022;7.082;2023-07-29T15:08:20;23.70;99.90
48328;DHT22;34136;51.022;7.082;2023-07-29T15:11:07;23.80;99.90
48328;DHT22;34136;51.022;7.082;2023-07-29T15:13:53;23.80;99.90
48328;DHT22;34136;51.022;7.082;2023-07-29T15:16:40;23.90;99.90
48328;DHT22;34136;51.022;7.082;2023-07-29T15:19:26;23.80;99.90
48328;DHT22;34136;51.022;7.082;2023-07-29T15:22:12;23.90;99.90
48328;DHT22;34136;51.022;7.082;2023-07-29T15:24:59;23.90;99.90
48328;DHT22;34136;51.022;7.082;2023-07-29T15:27:45;24.00;99.90
48328;DHT22;34136;51.022;7.082;2023-07-29T15:30:35;23.80;99.90
48328;DHT22;34136;51.022;7.082;2023-07-29T15:33:22;23.90;99.90
48328;DHT22;34136;51.022;7.082;2023-07-29T15:36:08;23.70;99.90
48328;DHT22;34136;51.022;7.082;2023-07-29T15:38:55;23.60;99.90
48328;DHT22;34136;51.022;7.082;2023-07-29T15:41:41;23.60;99.90
48328;DHT22;34136;51.022;7.082;2023-07-29T15:44:27;23.50;99.90
48328;DHT22;34136;51.022;7.082;2023-07-29T15:47:13;23.50;99.90
48328;DHT22;34136;51.022;7.082;2023-07-29T15:50:00;23.50;99.90
48328;DHT22;34136;51.022;7.082;2023-07-29T15:52:46;23.60;99.90
48328;DHT22;34136;51.022;7.082;2023-07-29T15:55:32;23.50;99.90
48328;DHT22;34136;51.022;7.082;2023-07-29T15:58:19;23.60;99.90
48328;DHT22;34136;51.022;7.082;2023-07-29T16:01:05;23.70;99.90
48328;DHT22;34136;51.022;7.082;2023-07-29T16:03:51;23.80;99.90
48328;DHT22;34136;51.022;7.082;2023-07-29T16:06:40;23.80;99.90
48328;DHT22;34136;51.022;7.082;2023-07-29T16:09:27;23.80;99.90
48328;DHT22;34136;51.022;7.082;2023-07-29T16:12:14;23.90;99.90
48328;DHT22;34136;51.022;7.082;2023-07-29T16:15:02;23.90;99.90
48328;DHT22;34136;51.022;7.082;2023-07-29T16:17:48;23.70;99.90
48328;DHT22;34136;51.022;7.082;2023-07-29T16:20:34;23.70;99.90
48328;DHT22;34136;51.022;7.082;2023-07-29T16:23:21;23.70;99.90
48328;DHT22;34136;51.022;7.082;2023-07-29T16:26:07;23.80;99.90
48328;DHT22;34136;51.022;7.082;2023-07-29T16:28:54;23.80;99.90
48328;DHT22;34136;51.022;7.082;2023-07-29T16:31:40;23.70;99.90
48328;DHT22;34136;51.022;7.082;2023-07-29T16:34:26;23.60;99.90
48328;DHT22;34136;51.022;7.082;2023-07-29T16:37:13;23.40;99.90
48328;DHT22;34136;51.022;7.082;2023-07-29T16:39:59;23.40;99.90
48328;DHT22;34136;51.022;7.082;2023-07-29T16:42:45;23.50;99.90
48328;DHT22;34136;51.022;7.082;2023-07-29T16:45:32;23.50;99.90
48328;DHT22;34136;51.022;7.082;2023-07-29T16:48:18;23.50;99.90
48328;DHT22;34136;51.022;7.082;2023-07-29T16:51:04;23.40;99.90
48328;DHT22;34136;51.022;7.082;2023-07-29T16:53:50;23.50;99.90
48328;DHT22;34136;51.022;7.082;2023-07-29T16:56:37;23.60;99.90
48328;DHT22;34136;51.022;7.082;2023-07-29T16:59:24;23.30;99.90
48328;DHT22;34136;51.022;7.082;2023-07-29T17:02:10;23.40;99.90
48328;DHT22;34136;51.022;7.082;2023-07-29T17:04:57;23.30;99.90
48328;DHT22;34136;51.022;7.082;2023-07-29T17:07:43;23.40;99.90
48328;DHT22;34136;51.022;7.082;2023-07-29T17:10:29;23.40;99.90
48328;DHT22;34136;51.022;7.082;2023-07-29T17:13:15;23.30;99.90
48328;DHT22;34136;51.022;7.082;2023-07-29T17:16:02;23.30;99.90
48328;DHT22;34136;51.022;7.082;2023-07-29T17:18:48;23.30;99.90
48328;DHT22;34136;51.022;7.082;2023-07-29T17:21:41;23.30;99.90
48328;DHT22;34136;51.022;7.082;2023-07-29T17:24:27;23.40;99.90
48328;DHT22;34136;51.022;7.082;2023-07-29T17:27:14;23.40;99.90
48328;DHT22;34136;51.022;7.082;2023-07-29T17:30:00;23.40;99.90
48328;DHT22;34136;51.022;7.082;2023-07-29T17:32:46;23.50;99.90
48328;DHT22;34136;51.022;7.082;2023-07-29T17:35:33;23.50;99.90
48328;DHT22;34136;51.022;7.082;2023-07-29T17:38:19;23.60;99.90
48328;DHT22;34136;51.022;7.082;2023-07-29T17:41:06;23.40;99.90
48328;DHT22;34136;51.022;7.082;2023-07-29T17:43:52;23.30;99.90
48328;DHT22;34136;51.022;7.082;2023-07-29T17:46:38;23.30;99.90
48328;DHT22;34136;51.022;7.082;2023-07-29T17:49:25;23.10;99.90
48328;DHT22;34136;51.022;7.082;2023-07-29T17:52:11;22.90;99.90
48328;DHT22;34136;51.022;7.082;2023-07-29T17:54:58;22.90;99.90
48328;DHT22;34136;51.022;7.082;2023-07-29T17:57:44;22.80;99.90
48328;DHT22;34136;51.022;7.082;2023-07-29T18:00:34;22.60;99.90
48328;DHT22;34136;51.022;7.082;2023-07-29T18:03:20;22.50;99.90
48328;DHT22;34136;51.022;7.082;2023-07-29T18:06:13;22.40;99.90
48328;DHT22;34136;51.022;7.082;2023-07-29T18:09:00;22.30;1.40
48328;DHT22;34136;51.022;7.082;2023-07-29T18:11:46;22.20;1.00
48328;DHT22;34136;51.022;7.082;2023-07-29T18:14:33;22.20;1.00
48328;DHT22;34136;51.022;7.082;2023-07-29T18:17:19;22.20;1.00
48328;DHT22;34136;51.022;7.082;2023-07-29T18:20:06;22.20;1.00
48328;DHT22;34136;51.022;7.082;2023-07-29T18:22:52;22.10;1.00
48328;DHT22;34136;51.022;7.082;2023-07-29T18:25:38;22.00;1.00
48328;DHT22;34136;51.022;7.082;2023-07-29T18:28:25;21.90;1.00
48328;DHT22;34136;51.022;7.082;2023-07-29T18:31:11;21.80;1.00
48328;DHT22;34136;51.022;7.082;2023-07-29T18:33:57;21.70;1.00
48328;DHT22;34136;51.022;7.082;2023-07-29T18:36:44;21.70;1.00
48328;DHT22;34136;51.022;7.082;2023-07-29T18:39:30;21.70;1.00
48328;DHT22;34136;51.022;7.082;2023-07-29T18:42:16;21.70;1.00
48328;DHT22;34136;51.022;7.082;2023-07-29T18:45:03;21.70;1.00
48328;DHT22;34136;51.022;7.082;2023-07-29T18:47:50;21.40;1.00
48328;DHT22;34136;51.022;7.082;2023-07-29T18:50:36;21.20;1.00
48328;DHT22;34136;51.022;7.082;2023-07-29T18:53:23;21.10;1.00
48328;DHT22;34136;51.022;7.082;2023-07-29T18:56:09;21.10;1.00
48328;DHT22;34136;51.022;7.082;2023-07-29T18:58:56;21.20;1.00
48328;DHT22;34136;51.022;7.082;2023-07-29T19:01:42;21.20;1.00
48328;DHT22;34136;51.022;7.082;2023-07-29T19:04:28;21.20;1.00
48328;DHT22;34136;51.022;7.082;2023-07-29T19:07:15;21.20;1.00
48328;DHT22;34136;51.022;7.082;2023-07-29T19:10:02;21.10;1.00
48328;DHT22;34136;51.022;7.082;2023-07-29T19:12:48;21.00;1.00
48328;DHT22;34136;51.022;7.082;2023-07-29T19:15:34;21.10;1.00
48328;DHT22;34136;51.022;7.082;2023-07-29T19:18:21;21.10;1.00
48328;DHT22;34136;51.022;7.082;2023-07-29T19:21:07;21.10;1.00
48328;DHT22;34136;51.022;7.082;2023-07-29T19:23:54;21.20;1.00
48328;DHT22;34136;51.022;7.082;2023-07-29T19:26:40;21.10;1.00
48328;DHT22;34136;51.022;7.082;2023-07-29T19:29:26;21.20;1.00
48328;DHT22;34136;51.022;7.082;2023-07-29T19:32:13;21.20;1.00
48328;DHT22;34136;51.022;7.082;2023-07-29T19:34:59;21.20;1.00
48328;DHT22;34136;51.022;7.082;2023-07-29T19:37:45;21.20;1.00
48328;DHT22;34136;51.022;7.082;2023-07-29T19:40:34;21.20;1.00
48328;DHT22;34136;51.022;7.082;2023-07-29T19:43:21;21.20;1.00
48328;DHT22;34136;51.022;7.082;2023-07-29T19:46:09;21.10;1.00
48328;DHT22;34136;51.022;7.082;2023-07-29T19:48:55;21.10;1.00
48328;DHT22;34136;51.022;7.082;2023-07-29T19:51:42;21.00;1.00
48328;DHT22;34136;51.022;7.082;2023-07-29T19:54:28;20.90;1.00
48328;DHT22;34136;51.022;7.082;2023-07-29T19:57:14;21.00;1.00
48328;DHT22;34136;51.022;7.082;2023-07-29T20:00:00;21.00;1.00
48328;DHT22;34136;51.022;7.082;2023-07-29T20:02:47;20.90;1.00
48328;DHT22;34136;51.022;7.082;2023-07-29T20:05:33;20.80;1.00
48328;DHT22;34136;51.022;7.082;2023-07-29T20:08:20;20.80;1.00
48328;DHT22;34136;51.022;7.082;2023-07-29T20:11:06;20.70;1.00
48328;DHT22;34136;51.022;7.082;2023-07-29T20:13:52;20.60;1.00
48328;DHT22;34136;51.022;7.082;2023-07-29T20:16:38;20.40;1.00
48328;DHT22;34136;51.022;7.082;2023-07-29T20:19:24;20.40;1.00
48328;DHT22;34136;51.022;7.082;2023-07-29T20:22:11;20.20;1.00
48328;DHT22;34136;51.022;7.082;2023-07-29T20:24:57;20.20;1.00
48328;DHT22;34136;51.022;7.082;2023-07-29T20:27:44;20.20;1.00
48328;DHT22;34136;51.022;7.082;2023-07-29T20:30:30;20.20;1.00
48328;DHT22;34136;51.022;7.082;2023-07-29T20:33:16;20.20;1.00
48328;DHT22;34136;51.022;7.082;2023-07-29T20:36:02;20.20;1.00
48328;DHT22;34136;51.022;7.082;2023-07-29T20:38:49;20.10;1.00
48328;DHT22;34136;51.022;7.082;2023-07-29T20:41:35;20.10;1.00
48328;DHT22;34136;51.022;7.082;2023-07-29T20:44:21;19.90;1.00
48328;DHT22;34136;51.022;7.082;2023-07-29T20:47:07;19.70;1.00
48328;DHT22;34136;51.022;7.082;2023-07-29T20:49:53;19.70;1.00
48328;DHT22;34136;51.022;7.082;2023-07-29T20:52:40;19.80;1.00